Time;durP1;ratioP1;P1;durP2;ratioP2;P2;SDS_P1;SDS_P2;PMS_P1;PMS_P2;Temp;Humidity;BMP_temperature;BMP_pressure;BME280_temperature;BME280_humidity;BME280_pressure;Samples;Min_cycle;Max_cycle;Signal;HPM_P1;HPM_P2
2021/07/27 00:05:12;;;;;;;25.20;13.80;;;;;;;21.97;66.76;98256.06;512093;1093;103160;-43
2021/07/27 00:15:19;;;;;;;23.10;14.73;;;;;;;21.81;66.75;98260.31;512221;1093;103458;-43
2021/07/27 00:25:30;;;;;;;17.30;14.20;;;;;;;21.59;66.65;98250.42;511899;1093;103175;-41
2021/07/27 00:35:37;;;;;;;21.30;16.03;;;;;;;21.32;66.93;98240.65;512432;1093;103524;-42
2021/07/27 00:45:45;;;;;;;19.45;15.93;;;;;;;21.04;67.24;98210.39;512063;1093;103412;-43
2021/07/27 00:55:53;;;;;;;21.00;15.77;;;;;;;21.04;67.55;98200.44;512017;1093;103096;-42
2021/07/27 01:05:59;;;;;;;15.63;13.87;;;;;;;20.80;67.36;98181.96;512313;1094;103063;-42
2021/07/27 01:47:46;;;;;;;24.27;17.63;;;;;;;20.18;69.33;98183.70;511987;1094;103473;-43
2021/07/27 01:57:54;;;;;;;20.80;17.33;;;;;;;20.04;69.25;98199.03;511814;1095;103118;-42
2021/07/27 02:08:02;;;;;;;23.98;17.48;;;;;;;20.02;69.74;98199.34;511900;1095;103124;-42
2021/07/27 02:18:10;;;;;;;23.67;18.07;;;;;;;19.89;70.31;98206.33;512172;1094;103121;-42
2021/07/27 02:28:17;;;;;;;;;;;;;;;19.84;70.06;98201.05;512052;1094;103235;-42
2021/07/27 02:38:24;;;;;;;21.30;17.15;;;;;;;19.81;70.60;98214.27;511928;1094;103260;-42
2021/07/27 02:48:32;;;;;;;23.35;17.48;;;;;;;19.89;70.79;98224.32;511790;1095;103807;-42
2021/07/27 02:58:40;;;;;;;21.83;15.68;;;;;;;20.19;70.91;98238.98;511886;1095;103518;-42
2021/07/27 03:18:56;;;;;;;24.20;18.30;;;;;;;19.85;71.61;98225.98;512099;1095;103174;-41
2021/07/27 03:29:04;;;;;;;22.83;17.63;;;;;;;19.87;72.10;98219.26;512141;1095;103165;-41
2021/07/27 03:39:09;;;;;;;;;;;;;;;19.99;72.76;98210.68;512282;1096;103159;-41
2021/07/27 03:49:17;;;;;;;25.50;17.50;;;;;;;20.03;72.73;98221.60;511934;1094;103117;-45
2021/07/27 03:59:25;;;;;;;28.55;19.60;;;;;;;20.11;73.09;98226.25;512012;1095;103147;-43
2021/07/27 04:09:32;;;;;;;;;;;;;;;20.43;72.98;98239.54;512152;1095;103434;-43
2021/07/27 04:19:40;;;;;;;21.10;17.00;;;;;;;20.63;72.61;98299.28;511989;1095;103136;-42
2021/07/27 04:29:47;;;;;;;23.68;18.53;;;;;;;20.58;72.18;98315.48;511901;1095;103191;-42
2021/07/27 04:39:55;;;;;;;25.70;21.03;;;;;;;20.52;72.14;98325.55;511949;1094;103670;-43
2021/07/27 04:50:03;;;;;;;27.93;22.23;;;;;;;20.61;72.91;98322.96;511922;1095;103162;-42
2021/07/27 05:00:18;;;;;;;26.38;20.18;;;;;;;20.91;73.56;98337.59;511879;1095;103479;-42
2021/07/27 05:10:26;;;;;;;17.40;14.70;;;;;;;20.77;73.10;98343.80;512112;1095;103510;-42
2021/07/27 05:20:33;;;;;;;18.00;15.00;;;;;;;20.60;72.58;98388.53;511901;1096;103109;-43
2021/07/27 05:30:41;;;;;;;17.80;13.47;;;;;;;20.49;72.76;98426.33;512095;1095;103267;-43
2021/07/27 05:51:02;;;;;;;36.45;31.40;;;;;;;19.64;73.33;98381.19;512095;1094;103146;-43
2021/07/27 06:01:09;;;;;;;17.67;14.47;;;;;;;19.38;74.29;98388.01;511938;1094;103169;-42
2021/07/27 06:11:18;;;;;;;21.73;13.80;;;;;;;19.28;74.21;98373.69;511886;1094;103158;-42
2021/07/27 06:21:25;;;;;;;18.10;14.77;;;;;;;19.23;74.62;98372.98;511956;1095;103509;-41
2021/07/27 06:31:33;;;;;;;19.23;15.60;;;;;;;19.35;75.09;98404.69;512318;1095;103157;-42
2021/07/27 06:41:41;;;;;;;20.38;15.95;;;;;;;19.62;75.21;98421.69;511972;1095;103185;-41
2021/07/27 06:51:49;;;;;;;16.18;14.48;;;;;;;19.96;75.42;98425.97;512031;1095;103132;-39
2021/07/27 07:01:57;;;;;;;17.17;14.67;;;;;;;20.81;75.50;98420.02;511891;1095;103524;-42
2021/07/27 07:12:07;;;;;;;15.97;13.63;;;;;;;21.40;74.74;98417.40;511866;1095;103528;-41
2021/07/27 07:22:16;;;;;;;15.67;12.37;;;;;;;22.70;75.47;98421.53;512021;1095;103118;-39
2021/07/27 07:32:24;;;;;;;14.47;10.40;;;;;;;23.80;73.78;98426.52;512048;1095;103180;-41
2021/07/27 07:42:31;;;;;;;13.18;11.68;;;;;;;24.27;72.73;98431.94;512195;1094;103121;-41
2021/07/27 07:52:39;;;;;;;11.83;10.37;;;;;;;25.69;72.52;98432.00;512114;1094;103119;-41
2021/07/27 08:02:46;;;;;;;11.60;10.20;;;;;;;25.47;70.47;98436.95;511918;1095;103171;-41
2021/07/27 08:12:55;;;;;;;10.63;9.63;;;;;;;25.31;69.76;98447.59;512050;1094;103067;-40
2021/07/27 08:23:03;;;;;;;11.60;10.40;;;;;;;25.54;69.23;98445.33;512216;1095;103415;-41
2021/07/27 08:33:11;;;;;;;10.57;9.53;;;;;;;25.85;68.74;98453.05;512220;1095;103121;-41
2021/07/27 08:43:17;;;;;;;11.25;10.10;;;;;;;26.03;67.48;98443.62;512211;1095;103482;-40
2021/07/27 08:53:25;;;;;;;11.27;10.20;;;;;;;26.53;67.13;98453.41;512229;1095;103155;-39
2021/07/27 09:03:34;;;;;;;10.60;9.50;;;;;;;26.68;66.72;98470.91;512108;1095;103120;-42
2021/07/27 09:13:42;;;;;;;9.93;9.10;;;;;;;27.37;66.23;98464.50;511949;1094;103438;-41
2021/07/27 09:23:50;;;;;;;9.00;8.10;;;;;;;27.71;64.65;98477.55;511930;1095;103616;-42
2021/07/27 09:34:16;;;;;;;10.73;8.93;;;;;;;27.93;63.99;98476.20;512000;1094;103119;-42
2021/07/27 09:44:23;;;;;;;8.23;7.43;;;;;;;28.62;63.67;98480.28;511963;1095;103238;-42
2021/07/27 09:54:31;;;;;;;8.97;7.90;;;;;;;28.64;61.07;98483.47;511959;1094;103121;-42
2021/07/27 10:04:47;;;;;;;6.77;6.17;;;;;;;28.46;60.17;98484.17;512025;1094;103154;-42
2021/07/27 10:14:55;;;;;;;6.50;5.50;;;;;;;28.57;59.49;98482.48;512037;1096;103089;-41
2021/07/27 10:25:14;;;;;;;6.10;5.60;;;;;;;28.64;59.01;98480.74;512022;1095;103607;-43
2021/07/27 10:45:34;;;;;;;4.93;4.40;;;;;;;28.95;56.83;98490.03;512122;1095;103141;-42
2021/07/27 11:06:00;;;;;;;4.67;4.30;;;;;;;29.20;55.23;98475.03;512150;1095;103132;-41
2021/07/27 11:16:08;;;;;;;9.03;5.93;;;;;;;29.44;54.72;98459.56;511982;1095;103445;-42
2021/07/27 11:26:16;;;;;;;5.93;5.43;;;;;;;29.78;54.18;98460.64;512198;1095;103655;-43
2021/07/27 11:46:34;;;;;;;7.50;6.07;;;;;;;29.60;53.46;98435.80;512067;1095;103132;-42
2021/07/27 11:56:47;;;;;;;9.30;6.63;;;;;;;29.64;53.34;98442.89;512047;1095;103642;-42
2021/07/27 12:17:03;;;;;;;8.00;6.80;;;;;;;28.83;52.96;98441.11;512038;1094;103191;-43
2021/07/27 12:27:10;;;;;;;7.80;6.73;;;;;;;29.21;52.36;98424.88;512089;1094;103514;-43
2021/07/27 12:47:27;;;;;;;7.70;7.00;;;;;;;29.71;51.57;98411.47;512142;1094;103046;-43
2021/07/27 13:07:44;;;;;;;6.90;6.37;;;;;;;29.95;50.87;98398.28;512020;1094;103473;-41
2021/07/27 13:17:51;;;;;;;6.33;5.67;;;;;;;29.76;50.05;98381.97;512171;1094;103201;-43
2021/07/27 13:27:57;;;;;;;6.90;5.40;;;;;;;29.21;49.56;98399.58;512116;1095;103149;-42
2021/07/27 13:38:05;;;;;;;6.07;5.43;;;;;;;28.91;50.03;98415.67;512094;1095;104292;-41
2021/07/27 13:48:13;;;;;;;7.15;6.45;;;;;;;28.92;50.54;98430.86;512032;1095;103117;-43
2021/07/27 13:58:22;;;;;;;6.50;6.00;;;;;;;28.65;50.63;98427.13;512163;1095;103572;-42
2021/07/27 14:08:31;;;;;;;7.70;5.50;;;;;;;28.23;50.63;98407.83;512087;1094;103132;-41
2021/07/27 14:18:37;;;;;;;7.97;5.07;;;;;;;27.99;51.03;98400.63;512002;1094;103162;-42
2021/07/27 14:28:45;;;;;;;6.43;5.73;;;;;;;28.01;51.29;98393.70;511932;1095;103169;-43
2021/07/27 14:38:53;;;;;;;5.70;4.90;;;;;;;28.99;50.87;98390.18;512034;1095;103079;-43
2021/07/27 14:59:09;;;;;;;5.57;5.07;;;;;;;29.65;48.23;98372.83;512105;1094;103142;-42
2021/07/27 15:09:15;;;;;;;5.37;4.10;;;;;;;29.53;47.71;98360.15;511930;1095;103472;-43
2021/07/27 15:19:23;;;;;;;4.88;4.28;;;;;;;29.33;47.40;98362.08;512004;1095;103595;-42
2021/07/27 15:29:31;;;;;;;5.73;5.23;;;;;;;29.23;47.44;98362.67;512101;1095;103520;-43
2021/07/27 15:39:38;;;;;;;8.00;6.40;;;;;;;28.92;47.50;98373.70;511965;1094;103162;-43
2021/07/27 15:49:45;;;;;;;5.47;4.80;;;;;;;28.63;48.09;98377.72;511880;1095;103199;-43
2021/07/27 15:59:52;;;;;;;5.70;5.20;;;;;;;28.52;48.11;98373.95;512144;1095;103469;-42
2021/07/27 16:09:58;;;;;;;5.80;5.27;;;;;;;28.33;48.57;98375.47;511934;1095;103569;-43
2021/07/27 16:20:08;;;;;;;6.67;5.67;;;;;;;28.18;48.94;98368.11;511863;1094;103117;-44
2021/07/27 16:30:13;;;;;;;6.47;5.70;;;;;;;27.96;49.46;98364.08;511867;1094;103439;-43
2021/07/27 16:40:21;;;;;;;9.70;6.30;;;;;;;27.75;49.20;98380.63;512299;1095;103118;-41
2021/07/27 16:50:29;;;;;;;6.87;5.90;;;;;;;27.39;50.02;98384.28;512190;1095;103121;-45
2021/07/27 17:00:37;;;;;;;7.60;6.80;;;;;;;27.15;50.40;98376.23;512031;1095;103143;-42
2021/07/27 17:10:46;;;;;;;7.40;6.70;;;;;;;26.97;50.83;98370.26;511929;1095;103597;-41
2021/07/27 17:20:53;;;;;;;9.83;6.77;;;;;;;26.81;51.73;98382.98;512234;1095;103505;-41
2021/07/27 17:31:06;;;;;;;14.37;8.40;;;;;;;26.72;52.08;98393.15;512191;1095;103068;-42
2021/07/27 17:41:14;;;;;;;13.45;8.60;;;;;;;26.54;52.49;98390.70;511972;1094;103135;-44
2021/07/27 17:51:21;;;;;;;8.10;7.35;;;;;;;26.42;52.50;98392.63;511976;1094;103469;-40
2021/07/27 18:01:29;;;;;;;9.27;8.03;;;;;;;26.30;52.94;98396.90;512304;1094;103056;-42
2021/07/27 18:11:37;;;;;;;13.10;8.33;;;;;;;25.86;52.81;98398.53;512056;1094;103183;-42
2021/07/27 18:21:45;;;;;;;10.40;9.30;;;;;;;25.30;53.71;98389.17;511983;1094;103648;-43
2021/07/27 18:31:52;;;;;;;12.43;8.13;;;;;;;24.70;54.55;98390.41;512044;1095;103157;-43
2021/07/27 18:41:59;;;;;;;11.47;8.30;;;;;;;24.33;55.53;98390.13;511987;1095;103505;-42
2021/07/27 18:52:06;;;;;;;10.65;8.00;;;;;;;23.89;56.14;98397.58;511906;1095;104255;-42
2021/07/27 19:02:13;;;;;;;13.37;9.43;;;;;;;23.44;57.26;98405.29;512210;1094;103536;-42
2021/07/27 19:12:21;;;;;;;12.05;10.05;;;;;;;23.18;58.37;98410.67;511938;1094;103157;-42
2021/07/27 19:22:29;;;;;;;11.70;9.00;;;;;;;22.88;58.95;98419.69;511859;1094;103118;-43
2021/07/27 19:32:37;;;;;;;15.43;9.83;;;;;;;22.63;59.38;98424.69;512019;1094;103103;-41
2021/07/27 20:03:01;;;;;;;17.33;13.03;;;;;;;21.73;61.64;98428.69;511970;1095;103143;-42
2021/07/27 20:13:09;;;;;;;17.70;13.00;;;;;;;21.50;62.26;98422.52;511970;1095;103132;-42
2021/07/27 20:23:17;;;;;;;14.33;12.30;;;;;;;21.18;62.60;98428.91;512065;1094;103115;-42
2021/07/27 20:43:31;;;;;;;14.93;11.77;;;;;;;20.90;63.46;98424.70;512041;1095;103511;-43
2021/07/27 20:53:40;;;;;;;13.27;11.57;;;;;;;20.81;63.93;98422.70;512033;1095;103165;-41
2021/07/27 21:13:54;;;;;;;;;;;;;;;20.58;65.38;98434.47;512198;1095;103156;-43
2021/07/27 21:24:02;;;;;;;23.87;16.83;;;;;;;20.62;65.33;98437.38;512047;1095;103150;-42
2021/07/27 21:34:10;;;;;;;30.63;19.03;;;;;;;20.59;65.58;98443.35;511969;1094;103181;-41
2021/07/27 21:44:18;;;;;;;26.03;17.20;;;;;;;20.62;66.26;98440.06;511920;1094;103064;-42
2021/07/27 21:54:26;;;;;;;25.00;18.73;;;;;;;20.60;66.74;98453.00;511981;1095;103437;-42
2021/07/27 22:04:34;;;;;;;27.87;18.97;;;;;;;20.48;67.21;98461.55;512009;1095;103522;-43
2021/07/27 22:14:42;;;;;;;24.87;17.50;;;;;;;20.36;67.82;98456.65;511944;1094;103655;-42
2021/07/27 22:25:11;;;;;;;19.87;16.10;;;;;;;20.28;67.75;98448.47;511899;1094;103521;-43
2021/07/27 22:55:33;;;;;;;22.70;15.70;;;;;;;20.15;68.19;98431.27;511990;1094;103432;-43
2021/07/27 23:05:42;;;;;;;22.37;15.20;;;;;;;20.06;68.31;98427.66;512173;1095;103118;-41
2021/07/27 23:15:49;;;;;;;21.25;14.78;;;;;;;19.95;68.45;98431.63;512083;1094;103435;-42
2021/07/27 23:25:58;;;;;;;21.05;14.70;;;;;;;19.88;68.90;98427.45;511895;1094;103122;-42
2021/07/27 23:36:09;;;;;;;22.53;15.73;;;;;;;19.69;69.11;98410.61;512246;1095;103125;-42
2021/07/27 23:46:19;;;;;;;21.27;16.03;;;;;;;19.55;69.02;98407.87;512027;1095;103445;-44
2021/07/27 23:56:27;;;;;;;24.40;16.38;;;;;;;19.48;69.14;98398.59;512176;1095;103149;-42
